Time;durP1;ratioP1;P1;durP2;ratioP2;P2;SDS_P1;SDS_P2;PMS_P1;PMS_P2;Temp;Humidity;BMP_temperature;BMP_pressure;BME280_temperature;BME280_humidity;BME280_pressure;Samples;Min_cycle;Max_cycle;Signal;HPM_P1;HPM_P2
2021/05/04 00:00:18;;;;;;;3.78;3.40;;;13.30;77.30;;;;;;5072406;28;20220;-76
2021/05/04 00:02:45;;;;;;;3.92;3.33;;;13.30;77.30;;;;;;5078276;28;20248;-76
2021/05/04 00:05:12;;;;;;;3.72;3.08;;;13.20;77.00;;;;;;5078812;28;20240;-76
2021/05/04 00:07:38;;;;;;;11.15;4.15;;;13.20;77.30;;;;;;5074200;28;20965;-76
2021/05/04 00:10:06;;;;;;;10.82;4.78;;;13.20;77.10;;;;;;5068020;28;20211;-76
2021/05/04 00:12:32;;;;;;;4.60;3.28;;;13.30;77.20;;;;;;5068478;28;20255;-77
2021/05/04 00:14:59;;;;;;;3.63;2.90;;;13.30;77.10;;;;;;5067601;28;20209;-76
2021/05/04 00:17:25;;;;;;;3.42;3.13;;;13.30;77.30;;;;;;5067893;28;20285;-77
2021/05/04 00:19:52;;;;;;;3.70;3.38;;;13.30;77.50;;;;;;5067957;28;20204;-77
2021/05/04 00:22:19;;;;;;;3.65;3.22;;;13.30;77.50;;;;;;5069158;28;20201;-77
2021/05/04 00:24:45;;;;;;;3.83;3.03;;;13.20;77.10;;;;;;5074576;28;20225;-77
2021/05/04 00:27:11;;;;;;;2.95;2.72;;;13.20;77.20;;;;;;5078161;28;20204;-77
2021/05/04 00:29:38;;;;;;;7.82;3.70;;;13.20;77.20;;;;;;5068132;28;20205;-76
2021/05/04 00:32:05;;;;;;;3.50;2.90;;;13.20;77.20;;;;;;5067159;28;20212;-76
2021/05/04 00:34:32;;;;;;;6.20;3.05;;;13.20;77.30;;;;;;5067380;28;20209;-76
2021/05/04 00:36:59;;;;;;;3.63;3.33;;;13.20;77.30;;;;;;5070852;28;20264;-75
2021/05/04 00:39:30;;;;;;;15.13;3.22;;;13.20;77.80;;;;;;5071914;28;20209;-76
2021/05/04 00:41:56;;;;;;;7.53;3.20;;;13.20;78.00;;;;;;5067456;28;20200;-76
2021/05/04 00:44:23;;;;;;;3.65;2.63;;;13.20;77.60;;;;;;5071456;28;20229;-76
2021/05/04 00:46:49;;;;;;;4.07;2.90;;;13.30;77.70;;;;;;5071552;28;20205;-76
2021/05/04 00:49:16;;;;;;;3.40;2.90;;;13.30;77.40;;;;;;5066866;28;20214;-76
2021/05/04 00:51:42;;;;;;;4.80;3.05;;;13.30;77.80;;;;;;5076423;28;20203;-76
2021/05/04 00:54:11;;;;;;;2.70;2.50;;;13.30;77.90;;;;;;5068276;28;20201;-76
2021/05/04 00:56:38;;;;;;;3.50;2.80;;;13.30;77.90;;;;;;5077043;28;20232;-76
2021/05/04 00:59:07;;;;;;;2.70;2.50;;;13.40;77.90;;;;;;5074192;28;20199;-76
2021/05/04 01:01:35;;;;;;;2.97;2.60;;;13.40;77.80;;;;;;5074985;28;20215;-75
2021/05/04 01:04:02;;;;;;;4.80;2.88;;;13.30;77.70;;;;;;5073919;28;20240;-75
2021/05/04 01:06:29;;;;;;;6.13;2.65;;;13.30;77.80;;;;;;5069157;28;20657;-76
2021/05/04 01:08:55;;;;;;;2.85;2.60;;;13.30;77.70;;;;;;5066841;28;20200;-76
2021/05/04 01:11:23;;;;;;;2.75;2.47;;;13.30;77.90;;;;;;5070347;28;20201;-76
2021/05/04 01:13:50;;;;;;;4.18;3.17;;;13.40;78.10;;;;;;5071973;28;20662;-76
2021/05/04 01:16:17;;;;;;;3.97;2.90;;;13.40;78.00;;;;;;5066218;28;20208;-76
2021/05/04 01:18:44;;;;;;;2.70;2.45;;;13.40;78.00;;;;;;5067821;28;20212;-77
2021/05/04 01:21:11;;;;;;;3.35;2.08;;;13.40;78.00;;;;;;5068425;28;20235;-78
2021/05/04 01:23:37;;;;;;;2.95;2.35;;;13.40;77.40;;;;;;5074337;28;20211;-78
2021/05/04 01:26:05;;;;;;;3.95;2.88;;;13.50;77.70;;;;;;5068134;28;20232;-77
2021/05/04 01:28:31;;;;;;;2.45;2.35;;;13.40;77.70;;;;;;5068559;28;20249;-78
2021/05/04 01:30:58;;;;;;;2.00;1.90;;;13.50;77.60;;;;;;5073485;28;20218;-77
2021/05/04 01:36:06;;;;;;;3.10;2.42;;;13.50;77.30;;;;;;5065571;28;20214;-77
2021/05/04 01:38:40;;;;;;;5.22;1.38;;;13.60;77.80;;;;;;5066807;28;20203;-77
2021/05/04 01:41:06;;;;;;;2.90;2.17;;;13.60;77.40;;;;;;5065723;28;20242;-77
2021/05/04 01:43:33;;;;;;;2.92;1.85;;;13.60;77.40;;;;;;5065869;28;20203;-77
2021/05/04 01:45:59;;;;;;;2.25;2.05;;;13.60;76.80;;;;;;5066087;28;20230;-76
2021/05/04 01:48:25;;;;;;;10.43;2.20;;;13.60;77.00;;;;;;5065766;28;20198;-77
2021/05/04 01:50:52;;;;;;;14.50;2.53;;;13.60;76.00;;;;;;5066172;28;20214;-75
2021/05/04 01:53:18;;;;;;;3.42;1.98;;;13.60;73.40;;;;;;5066171;28;20672;-75
2021/05/04 01:55:46;;;;;;;3.13;1.80;;;13.60;75.40;;;;;;5065862;28;20206;-75
2021/05/04 01:58:13;;;;;;;20.77;3.45;;;13.60;75.00;;;;;;5065857;28;20201;-74
2021/05/04 02:00:39;;;;;;;17.60;2.65;;;13.60;75.00;;;;;;5066227;28;20215;-75
2021/05/04 02:03:05;;;;;;;20.92;2.78;;;13.50;77.40;;;;;;5070796;28;20234;-76
2021/05/04 02:05:32;;;;;;;5.65;1.98;;;13.40;77.80;;;;;;5066967;28;20255;-75
2021/05/04 02:07:58;;;;;;;5.55;1.70;;;13.30;78.70;;;;;;5066190;28;20214;-75
2021/05/04 02:10:25;;;;;;;7.60;1.77;;;13.20;80.70;;;;;;5075203;28;20701;-75
2021/05/04 02:12:52;;;;;;;5.35;1.40;;;13.10;82.20;;;;;;5070973;28;20239;-75
2021/05/04 02:15:19;;;;;;;5.60;1.70;;;13.00;84.60;;;;;;5065419;28;20214;-75
2021/05/04 02:17:45;;;;;;;2.83;1.73;;;12.80;88.50;;;;;;5065436;28;20208;-75
2021/05/04 02:20:12;;;;;;;7.78;1.50;;;12.60;90.90;;;;;;5069871;28;20216;-75
2021/05/04 02:22:39;;;;;;;2.67;1.27;;;12.40;90.90;;;;;;5065667;28;20258;-76
2021/05/04 02:25:08;;;;;;;1.63;1.35;;;12.30;93.00;;;;;;5070835;28;20635;-76
2021/05/04 02:27:35;;;;;;;11.02;1.95;;;12.20;94.80;;;;;;5071571;28;20206;-76
2021/05/04 02:30:03;;;;;;;2.97;1.75;;;12.10;97.80;;;;;;5072139;28;20200;-76
2021/05/04 02:32:32;;;;;;;1.45;1.35;;;11.90;99.90;;;;;;5076443;28;20198;-76
2021/05/04 02:34:58;;;;;;;2.65;1.73;;;11.70;99.90;;;;;;5072528;28;20239;-76
2021/05/04 02:37:25;;;;;;;4.00;1.88;;;11.40;99.90;;;;;;5065663;28;20201;-76
2021/05/04 02:39:51;;;;;;;2.03;1.92;;;11.20;99.90;;;;;;5065078;28;20197;-76
2021/05/04 02:42:17;;;;;;;1.60;1.50;;;11.00;99.90;;;;;;5065595;28;20216;-76
2021/05/04 02:44:44;;;;;;;5.40;1.50;;;10.80;99.90;;;;;;5071071;28;20229;-76
2021/05/04 02:47:11;;;;;;;1.92;1.67;;;10.60;99.90;;;;;;5076148;28;20198;-75
2021/05/04 02:49:38;;;;;;;7.57;1.35;;;10.50;99.90;;;;;;5069165;28;20219;-75
2021/05/04 02:52:05;;;;;;;8.50;1.88;;;10.50;99.90;;;;;;5068764;28;20224;-75
2021/05/04 02:54:31;;;;;;;6.65;1.75;;;10.40;99.90;;;;;;5074225;28;20228;-75
2021/05/04 02:56:57;;;;;;;1.50;1.40;;;10.30;99.90;;;;;;5076743;28;20209;-75
2021/05/04 02:59:24;;;;;;;2.50;2.15;;;10.30;99.90;;;;;;5073314;28;20201;-75
2021/05/04 03:01:50;;;;;;;5.20;1.60;;;10.20;99.90;;;;;;5078217;28;20570;-76
2021/05/04 03:04:17;;;;;;;2.85;1.90;;;10.10;99.90;;;;;;5068635;28;20247;-75
2021/05/04 03:06:44;;;;;;;1.65;1.55;;;10.00;99.90;;;;;;5069611;28;20205;-75
2021/05/04 03:09:10;;;;;;;2.55;1.40;;;10.00;99.90;;;;;;5069277;28;20202;-76
2021/05/04 03:11:36;;;;;;;5.82;1.98;;;10.00;99.90;;;;;;5074033;28;20205;-75
2021/05/04 03:14:03;;;;;;;3.22;2.20;;;10.00;99.90;;;;;;5071309;28;20216;-75
2021/05/04 03:16:30;;;;;;;1.70;1.60;;;10.00;99.90;;;;;;5075140;28;20200;-74
2021/05/04 03:18:56;;;;;;;2.00;1.90;;;10.00;99.90;;;;;;5071032;28;20198;-75
2021/05/04 03:21:24;;;;;;;2.97;1.92;;;10.00;99.90;;;;;;5077486;28;20204;-75
2021/05/04 03:23:50;;;;;;;1.70;1.60;;;10.00;99.90;;;;;;5074908;28;20220;-75
2021/05/04 03:26:16;;;;;;;1.58;1.48;;;9.80;99.90;;;;;;5068634;28;20221;-74
2021/05/04 03:28:43;;;;;;;1.30;1.20;;;9.90;99.90;;;;;;5072018;28;20213;-74
2021/05/04 03:31:09;;;;;;;2.15;1.80;;;9.80;99.90;;;;;;5068498;28;20223;-75
2021/05/04 03:33:36;;;;;;;1.50;1.40;;;9.90;99.90;;;;;;5068535;28;20235;-74
2021/05/04 03:36:02;;;;;;;2.47;1.77;;;9.90;99.90;;;;;;5074185;28;20224;-75
2021/05/04 03:38:30;;;;;;;2.42;1.75;;;9.90;99.90;;;;;;5068755;28;20201;-74
2021/05/04 03:40:56;;;;;;;2.78;2.47;;;9.90;99.90;;;;;;5068346;28;20209;-75
2021/05/04 03:43:22;;;;;;;3.72;1.60;;;9.90;99.90;;;;;;5068223;28;20288;-75
2021/05/04 03:45:49;;;;;;;2.45;2.05;;;9.80;99.90;;;;;;5068959;28;20240;-75
2021/05/04 03:48:15;;;;;;;2.47;2.28;;;9.60;99.90;;;;;;5068183;28;20571;-75
2021/05/04 03:50:42;;;;;;;3.83;2.60;;;9.60;99.90;;;;;;5066849;28;20206;-75
2021/05/04 03:53:08;;;;;;;5.15;2.42;;;9.50;99.90;;;;;;5067864;28;20296;-75
2021/05/04 03:55:36;;;;;;;2.40;2.15;;;9.50;99.90;;;;;;5067583;28;20212;-75
2021/05/04 03:58:02;;;;;;;2.85;2.30;;;9.40;99.90;;;;;;5073454;28;20758;-74
2021/05/04 04:00:28;;;;;;;2.38;2.17;;;9.40;99.90;;;;;;5079097;28;20201;-75
2021/05/04 04:02:55;;;;;;;3.30;2.50;;;9.40;99.90;;;;;;5070738;28;20463;-75
2021/05/04 04:05:21;;;;;;;5.35;2.53;;;9.40;99.90;;;;;;5072151;28;20225;-75
2021/05/04 04:07:48;;;;;;;2.15;2.00;;;9.50;99.90;;;;;;5067827;28;20201;-75
2021/05/04 04:10:14;;;;;;;3.63;2.30;;;9.50;99.90;;;;;;5067659;28;20201;-76
2021/05/04 04:12:42;;;;;;;4.25;2.40;;;9.60;99.90;;;;;;5072342;28;20205;-76
2021/05/04 04:15:10;;;;;;;8.40;2.13;;;9.50;99.90;;;;;;5067301;28;20589;-76
2021/05/04 04:17:36;;;;;;;2.83;2.33;;;9.50;99.90;;;;;;5066366;28;20201;-76
2021/05/04 04:20:04;;;;;;;2.13;1.80;;;9.60;99.90;;;;;;5067194;28;20205;-76
2021/05/04 04:22:30;;;;;;;2.10;1.60;;;9.60;99.90;;;;;;5073870;28;20196;-76
2021/05/04 04:24:57;;;;;;;2.15;1.27;;;9.60;99.90;;;;;;5067021;28;20221;-76
2021/05/04 04:27:23;;;;;;;3.10;1.90;;;9.70;99.90;;;;;;5074714;28;20208;-77
2021/05/04 04:29:51;;;;;;;2.17;2.08;;;9.70;99.90;;;;;;5067895;28;20209;-77
2021/05/04 04:32:17;;;;;;;2.00;1.90;;;9.70;99.90;;;;;;5069726;28;20209;-76
2021/05/04 04:34:43;;;;;;;2.83;2.20;;;9.80;99.90;;;;;;5070617;28;20560;-76
2021/05/04 04:37:10;;;;;;;2.22;1.75;;;9.80;99.90;;;;;;5067590;28;20205;-76
2021/05/04 04:39:36;;;;;;;5.57;1.65;;;9.90;99.90;;;;;;5065722;28;20204;-77
2021/05/04 04:42:03;;;;;;;2.03;1.77;;;9.90;99.90;;;;;;5069066;28;20220;-76
2021/05/04 04:44:29;;;;;;;1.75;1.65;;;9.90;99.90;;;;;;5068900;28;20220;-76
2021/05/04 04:46:57;;;;;;;1.83;1.73;;;9.90;99.90;;;;;;5072726;28;20205;-75
2021/05/04 04:49:23;;;;;;;1.95;1.80;;;9.90;99.90;;;;;;5066386;28;20209;-75
2021/05/04 04:51:50;;;;;;;2.17;1.52;;;9.90;99.90;;;;;;5066309;28;20228;-75
2021/05/04 04:54:16;;;;;;;2.78;1.60;;;10.00;99.90;;;;;;5066964;28;20208;-76
2021/05/04 04:56:43;;;;;;;2.00;1.80;;;10.00;99.90;;;;;;5073315;28;20201;-75
2021/05/04 04:59:09;;;;;;;2.25;1.92;;;10.10;99.90;;;;;;5069235;28;20264;-76
2021/05/04 05:01:37;;;;;;;2.25;1.73;;;10.10;99.90;;;;;;5068110;28;20200;-76
2021/05/04 05:04:05;;;;;;;2.40;2.20;;;10.10;99.90;;;;;;5072714;28;20240;-75
2021/05/04 05:06:32;;;;;;;1.58;1.30;;;10.10;99.90;;;;;;5066034;28;20205;-75
2021/05/04 05:08:58;;;;;;;1.88;1.73;;;10.10;99.90;;;;;;5066641;28;20259;-74
2021/05/04 05:11:25;;;;;;;1.60;1.50;;;10.10;99.90;;;;;;5071029;28;20197;-76
2021/05/04 05:13:51;;;;;;;1.40;1.30;;;10.10;99.90;;;;;;5073184;28;20611;-76
2021/05/04 05:16:20;;;;;;;7.88;1.30;;;10.20;99.90;;;;;;5066627;28;20209;-76
2021/05/04 05:18:46;;;;;;;1.45;1.35;;;10.20;99.90;;;;;;5066935;28;20201;-75
2021/05/04 05:21:16;;;;;;;1.38;1.17;;;10.20;99.90;;;;;;5065495;28;20204;-76
2021/05/04 05:23:43;;;;;;;4.43;1.25;;;10.20;99.90;;;;;;5075603;28;20598;-76
2021/05/04 05:26:10;;;;;;;1.35;1.25;;;10.20;99.90;;;;;;5066482;28;20232;-76
2021/05/04 05:28:38;;;;;;;4.35;1.60;;;10.30;99.90;;;;;;5066691;28;20217;-75
2021/05/04 05:31:04;;;;;;;2.50;1.85;;;10.30;99.90;;;;;;5066498;28;20265;-75
2021/05/04 05:33:31;;;;;;;4.30;2.00;;;10.30;99.90;;;;;;5066543;28;20201;-76
2021/05/04 05:35:57;;;;;;;2.58;1.60;;;10.30;99.90;;;;;;5071124;28;20211;-76
2021/05/04 05:38:24;;;;;;;4.88;2.42;;;10.20;99.90;;;;;;5071033;28;20204;-76
2021/05/04 05:40:51;;;;;;;3.00;2.13;;;10.20;99.90;;;;;;5073589;28;20201;-75
2021/05/04 05:43:17;;;;;;;1.95;1.48;;;10.10;99.90;;;;;;5075691;28;20255;-75
2021/05/04 05:45:44;;;;;;;2.13;1.80;;;10.00;99.90;;;;;;5065769;28;20256;-75
2021/05/04 05:48:10;;;;;;;1.58;1.48;;;10.00;99.90;;;;;;5076421;28;20495;-75
2021/05/04 05:50:37;;;;;;;1.58;1.48;;;10.00;99.90;;;;;;5066701;28;20204;-75
2021/05/04 05:53:03;;;;;;;2.05;1.80;;;10.00;99.90;;;;;;5065632;28;20216;-75
2021/05/04 05:55:31;;;;;;;1.70;1.60;;;10.10;99.90;;;;;;5076040;28;20205;-75
2021/05/04 05:57:58;;;;;;;2.45;1.70;;;10.10;99.90;;;;;;5064785;28;20205;-77
2021/05/04 06:00:25;;;;;;;1.55;1.33;;;10.10;99.90;;;;;;5068170;28;20209;-76
2021/05/04 06:02:51;;;;;;;2.15;1.20;;;10.20;99.90;;;;;;5072832;28;20233;-78
2021/05/04 06:05:18;;;;;;;3.47;1.70;;;10.20;99.90;;;;;;5068684;28;20247;-76
2021/05/04 06:07:45;;;;;;;1.58;1.48;;;10.30;99.90;;;;;;5065525;28;20540;-75
2021/05/04 06:10:13;;;;;;;3.95;1.20;;;10.30;99.90;;;;;;5071856;28;20217;-77
2021/05/04 06:12:40;;;;;;;1.42;1.33;;;10.40;99.90;;;;;;5068395;28;20671;-76
2021/05/04 06:15:08;;;;;;;1.52;1.42;;;10.40;99.90;;;;;;5067894;28;20560;-75
2021/05/04 06:17:34;;;;;;;1.83;1.73;;;10.40;99.90;;;;;;5072541;28;20207;-76
2021/05/04 06:20:00;;;;;;;1.95;1.85;;;10.40;99.90;;;;;;5067394;28;20209;-76
2021/05/04 06:22:27;;;;;;;1.73;1.60;;;10.40;99.90;;;;;;5069695;28;20652;-76
2021/05/04 06:24:53;;;;;;;1.80;1.70;;;10.50;99.90;;;;;;5069280;28;20259;-76
2021/05/04 06:27:19;;;;;;;1.85;1.40;;;10.60;99.90;;;;;;5069193;28;20201;-76
2021/05/04 06:29:47;;;;;;;2.35;1.50;;;10.70;99.90;;;;;;5074743;28;20553;-76
2021/05/04 06:32:15;;;;;;;3.70;1.55;;;10.70;99.90;;;;;;5069861;28;20687;-76
2021/05/04 06:34:42;;;;;;;1.60;1.50;;;10.80;99.90;;;;;;5069695;28;20228;-76
2021/05/04 06:37:08;;;;;;;2.05;1.38;;;10.90;99.90;;;;;;5071286;28;20709;-76
2021/05/04 06:39:34;;;;;;;1.48;1.38;;;11.00;99.90;;;;;;5072814;28;20208;-76
2021/05/04 06:42:01;;;;;;;2.80;1.65;;;10.90;99.90;;;;;;5073657;28;20212;-76
2021/05/04 06:44:27;;;;;;;3.22;2.03;;;10.90;99.90;;;;;;5070192;28;20203;-77
2021/05/04 06:46:54;;;;;;;2.92;1.52;;;10.80;99.90;;;;;;5069892;28;20209;-76
2021/05/04 06:49:21;;;;;;;1.75;1.35;;;10.70;99.90;;;;;;5073394;28;20546;-76
2021/05/04 06:51:47;;;;;;;2.45;1.77;;;10.70;99.90;;;;;;5075974;28;20206;-76
2021/05/04 06:54:14;;;;;;;3.47;2.50;;;10.50;99.90;;;;;;5069550;28;20216;-75
2021/05/04 06:56:40;;;;;;;3.85;2.22;;;10.40;99.90;;;;;;5069300;28;20209;-76
2021/05/04 06:59:06;;;;;;;3.05;2.75;;;10.30;99.90;;;;;;5076003;28;20209;-76
2021/05/04 07:01:34;;;;;;;5.10;2.50;;;10.30;99.90;;;;;;5073641;28;20208;-76
2021/05/04 07:04:02;;;;;;;6.90;2.40;;;10.20;99.90;;;;;;5075527;28;20237;-76
2021/05/04 07:06:28;;;;;;;5.15;2.20;;;10.20;99.90;;;;;;5068464;28;20275;-76
2021/05/04 07:08:54;;;;;;;2.28;2.10;;;10.20;99.90;;;;;;5069723;28;20763;-76
2021/05/04 07:11:21;;;;;;;4.18;2.17;;;10.20;99.90;;;;;;5070456;28;20205;-76
2021/05/04 07:13:47;;;;;;;4.97;1.73;;;10.20;99.90;;;;;;5074034;28;20205;-76
2021/05/04 07:16:14;;;;;;;3.67;1.95;;;10.20;99.90;;;;;;5068904;28;20209;-76
2021/05/04 07:18:41;;;;;;;2.35;2.20;;;10.30;99.90;;;;;;5073094;28;20205;-76
2021/05/04 07:21:09;;;;;;;3.10;2.00;;;10.30;99.90;;;;;;5068550;28;20221;-76
2021/05/04 07:23:36;;;;;;;3.17;1.98;;;10.30;99.90;;;;;;5068751;28;20236;-76
2021/05/04 07:26:03;;;;;;;3.67;1.92;;;10.30;99.90;;;;;;5072332;28;20236;-75
2021/05/04 07:28:29;;;;;;;3.67;2.08;;;10.30;99.90;;;;;;5083106;28;20204;-76
2021/05/04 07:30:56;;;;;;;5.30;2.40;;;10.30;99.90;;;;;;5071479;28;20223;-76
2021/05/04 07:33:23;;;;;;;2.55;2.35;;;10.20;99.90;;;;;;5068142;28;20213;-75
2021/05/04 07:35:50;;;;;;;1.98;1.88;;;10.20;99.90;;;;;;5075636;28;20216;-76
2021/05/04 07:38:17;;;;;;;7.32;2.40;;;10.20;99.90;;;;;;5078643;28;20205;-76
2021/05/04 07:40:44;;;;;;;2.38;2.17;;;10.20;99.90;;;;;;5074907;28;20801;-76
2021/05/04 07:43:10;;;;;;;1.73;1.63;;;10.20;99.90;;;;;;5067843;28;20208;-76
2021/05/04 07:45:37;;;;;;;2.22;2.13;;;10.20;99.90;;;;;;5068469;28;20225;-76
2021/05/04 07:48:05;;;;;;;3.15;1.90;;;10.20;99.90;;;;;;5068409;28;20232;-76
2021/05/04 07:50:33;;;;;;;2.33;2.13;;;10.20;99.90;;;;;;5074463;28;20197;-76
2021/05/04 07:53:00;;;;;;;6.57;2.08;;;10.30;99.90;;;;;;5073988;28;20207;-76
2021/05/04 07:55:28;;;;;;;2.00;1.63;;;10.40;99.90;;;;;;5072224;28;20205;-76
2021/05/04 07:57:54;;;;;;;5.50;2.17;;;10.50;99.90;;;;;;5071681;28;20248;-76
2021/05/04 08:00:21;;;;;;;1.90;1.80;;;10.60;99.90;;;;;;5068437;28;20212;-76
2021/05/04 08:02:47;;;;;;;3.50;2.20;;;10.60;99.90;;;;;;5074014;28;20237;-77
2021/05/04 08:05:14;;;;;;;6.97;2.03;;;10.60;99.90;;;;;;5068246;28;20229;-76
2021/05/04 08:07:41;;;;;;;3.28;1.60;;;10.60;99.90;;;;;;5068323;28;20209;-76
2021/05/04 08:10:09;;;;;;;5.22;1.90;;;10.70;99.90;;;;;;5067947;28;20201;-76
2021/05/04 08:12:36;;;;;;;6.15;1.83;;;10.70;99.90;;;;;;5072931;28;20205;-76
2021/05/04 08:15:04;;;;;;;2.55;1.40;;;10.70;99.90;;;;;;5068508;28;20214;-76
2021/05/04 08:17:32;;;;;;;2.60;1.75;;;10.70;99.90;;;;;;5067994;28;20201;-76
2021/05/04 08:20:00;;;;;;;1.80;1.70;;;10.70;99.90;;;;;;5067650;28;20201;-75
2021/05/04 08:22:27;;;;;;;3.33;1.98;;;10.70;99.90;;;;;;5073221;28;20208;-76
2021/05/04 08:24:55;;;;;;;4.35;1.80;;;10.70;99.90;;;;;;5073151;28;20329;-76
2021/05/04 08:27:22;;;;;;;2.67;1.98;;;10.70;99.90;;;;;;5077218;28;20208;-76
2021/05/04 08:29:49;;;;;;;5.03;2.08;;;10.70;99.90;;;;;;5067759;28;20207;-76
2021/05/04 08:32:15;;;;;;;2.00;1.80;;;10.80;99.90;;;;;;5067724;28;20210;-76
2021/05/04 08:34:42;;;;;;;2.10;1.98;;;11.00;99.90;;;;;;5071491;28;20216;-76
2021/05/04 08:37:08;;;;;;;2.05;1.90;;;11.10;99.90;;;;;;5071698;28;20203;-76
2021/05/04 08:39:34;;;;;;;2.53;1.48;;;11.20;99.90;;;;;;5067933;28;20234;-76
2021/05/04 08:42:01;;;;;;;3.70;2.08;;;11.30;99.90;;;;;;5067310;28;20205;-76
2021/05/04 08:44:28;;;;;;;2.38;2.17;;;11.30;99.90;;;;;;5066328;28;20203;-76
2021/05/04 08:46:55;;;;;;;3.28;1.92;;;11.30;99.90;;;;;;5067164;28;20215;-77
2021/05/04 08:49:22;;;;;;;3.25;1.70;;;11.40;99.90;;;;;;5074688;28;20205;-76
2021/05/04 08:51:51;;;;;;;3.58;1.80;;;11.40;99.90;;;;;;5067378;28;20201;-76
2021/05/04 08:54:18;;;;;;;1.17;1.17;;;11.50;99.90;;;;;;5067195;28;20204;-76
2021/05/04 08:56:45;;;;;;;2.95;1.70;;;11.60;99.90;;;;;;5067378;28;20207;-76
2021/05/04 08:59:12;;;;;;;2.38;2.17;;;11.70;99.90;;;;;;5071845;28;20207;-76
2021/05/04 09:01:39;;;;;;;1.90;1.80;;;11.60;99.90;;;;;;5066800;28;20211;-76
2021/05/04 09:04:26;;;;;;;3.08;2.40;;;11.40;99.90;;;;;;5067158;28;20264;-76
2021/05/04 09:06:55;;;;;;;4.45;1.90;;;11.20;99.90;;;;;;5076226;28;20251;-76
2021/05/04 09:09:26;;;;;;;3.53;2.33;;;11.00;99.90;;;;;;5076723;28;20258;-76
2021/05/04 09:12:03;;;;;;;9.45;2.38;;;10.80;99.90;;;;;;5070274;28;20231;-76
2021/05/04 09:14:41;;;;;;;2.65;2.00;;;10.70;99.90;;;;;;5072369;28;20193;-76
2021/05/04 09:17:13;;;;;;;11.95;3.15;;;10.70;99.90;;;;;;5072716;28;20287;-76
2021/05/04 09:19:55;;;;;;;2.88;2.15;;;10.50;99.90;;;;;;5067040;28;20208;-76
2021/05/04 09:22:36;;;;;;;3.05;2.13;;;10.50;99.90;;;;;;5072339;28;20228;-76
2021/05/04 09:25:04;;;;;;;2.70;2.35;;;10.40;99.90;;;;;;5070368;28;20229;-76
2021/05/04 09:27:30;;;;;;;2.03;1.80;;;10.40;99.90;;;;;;5071361;28;20196;-76
2021/05/04 09:29:59;;;;;;;2.65;2.00;;;10.30;99.90;;;;;;5074474;28;20204;-76
2021/05/04 09:32:27;;;;;;;2.15;1.75;;;10.30;99.90;;;;;;5072366;28;20237;-76
2021/05/04 09:34:59;;;;;;;2.55;2.00;;;10.40;99.90;;;;;;5065896;28;20205;-76
2021/05/04 09:37:35;;;;;;;4.10;1.60;;;10.40;99.90;;;;;;5072842;28;20204;-77
2021/05/04 09:40:23;;;;;;;8.73;1.85;;;10.70;99.90;;;;;;5063765;28;20205;-76
2021/05/04 09:43:00;;;;;;;1.60;1.25;;;11.10;99.90;;;;;;5076222;28;20209;-76
2021/05/04 09:45:27;;;;;;;5.28;1.50;;;11.60;99.90;;;;;;5071394;28;20221;-76
2021/05/04 09:48:24;;;;;;;5.90;1.88;;;11.80;99.90;;;;;;5071756;28;20201;-76
2021/05/04 09:50:55;;;;;;;5.50;1.85;;;11.90;99.90;;;;;;5066159;28;20201;-76
2021/05/04 09:53:23;;;;;;;3.45;1.83;;;12.30;99.90;;;;;;5069981;28;20200;-76
2021/05/04 09:55:55;;;;;;;3.22;1.88;;;12.80;99.90;;;;;;5072903;28;20393;-76
2021/05/04 09:58:33;;;;;;;7.75;1.40;;;13.00;99.90;;;;;;5071797;28;20204;-76
2021/05/04 10:01:00;;;;;;;9.60;2.08;;;12.90;99.90;;;;;;5073016;28;20203;-76
2021/05/04 10:08:03;;;;;;;7.63;2.20;;;12.30;99.90;;;;;;5104297;28;20226;-76
2021/05/04 10:10:30;;;;;;;3.47;1.50;;;12.40;99.90;;;;;;5108280;28;20197;-76
2021/05/04 10:12:57;;;;;;;4.45;1.75;;;12.80;99.90;;;;;;5111576;28;20207;-77
2021/05/04 10:15:24;;;;;;;6.93;1.75;;;13.20;99.90;;;;;;5105869;28;20199;-77
2021/05/04 10:17:51;;;;;;;7.25;1.33;;;13.50;99.90;;;;;;5104732;28;20200;-77
2021/05/04 10:20:18;;;;;;;8.88;1.98;;;13.70;99.90;;;;;;5102649;28;20204;-76
2021/05/04 10:22:45;;;;;;;5.32;1.85;;;13.60;99.90;;;;;;5108159;28;20223;-77
2021/05/04 10:25:15;;;;;;;8.18;2.28;;;13.50;99.90;;;;;;5107222;28;20672;-76
2021/05/04 10:27:43;;;;;;;9.63;2.10;;;13.40;99.90;;;;;;5106740;28;20204;-76
2021/05/04 10:30:12;;;;;;;10.02;2.15;;;13.50;99.90;;;;;;5108991;28;20200;-77
2021/05/04 10:32:50;;;;;;;2.78;1.50;;;13.80;99.90;;;;;;5105982;28;20209;-76
2021/05/04 10:35:42;;;;;;;8.50;2.15;;;14.00;99.90;;;;;;5104562;28;20199;-76
2021/05/04 10:38:09;;;;;;;12.93;2.45;;;13.70;99.90;;;;;;5104208;28;20202;-76
2021/05/04 10:40:39;;;;;;;6.20;1.77;;;13.50;99.90;;;;;;5103323;28;20206;-76
2021/05/04 10:43:34;;;;;;;9.25;1.50;;;13.30;99.90;;;;;;5107324;28;20220;-76
2021/05/04 10:46:01;;;;;;;3.97;1.70;;;12.90;99.90;;;;;;5108647;28;20215;-76
2021/05/04 10:48:39;;;;;;;8.73;2.30;;;12.80;99.90;;;;;;5114813;28;20208;-76
2021/05/04 10:51:08;;;;;;;6.65;1.92;;;13.00;99.90;;;;;;5111194;28;20549;-76
2021/05/04 10:54:03;;;;;;;6.60;1.90;;;13.50;99.90;;;;;;5110174;28;20222;-76
2021/05/04 10:56:36;;;;;;;6.38;2.40;;;13.80;99.90;;;;;;5096529;28;20200;-76
2021/05/04 10:59:04;;;;;;;8.93;2.90;;;14.00;99.90;;;;;;5106998;28;20745;-76
2021/05/04 11:01:30;;;;;;;9.20;1.58;;;14.20;99.90;;;;;;5106952;28;20279;-76
2021/05/04 11:03:57;;;;;;;5.32;2.08;;;14.30;99.90;;;;;;5108056;28;20241;-76
2021/05/04 11:06:47;;;;;;;7.00;2.53;;;14.40;99.90;;;;;;5118805;28;20195;-77
2021/05/04 11:09:15;;;;;;;12.00;2.13;;;14.50;99.90;;;;;;5115440;28;20745;-76
2021/05/04 11:11:46;;;;;;;3.05;2.22;;;14.50;99.90;;;;;;5113096;28;20213;-77
2021/05/04 11:14:28;;;;;;;5.47;1.83;;;14.40;99.90;;;;;;5114333;28;20222;-77
2021/05/04 11:17:10;;;;;;;7.88;2.05;;;14.40;99.90;;;;;;5088641;28;20207;-76
2021/05/04 11:19:39;;;;;;;7.80;2.60;;;14.30;99.90;;;;;;5088324;28;20293;-77
2021/05/04 11:22:13;;;;;;;11.23;2.40;;;14.20;99.90;;;;;;5092799;28;20214;-77
2021/05/04 11:24:42;;;;;;;6.38;2.45;;;14.20;99.90;;;;;;5102836;28;20249;-77
2021/05/04 11:30:03;;;;;;;16.13;2.67;;;14.60;99.90;;;;;;5102834;28;20268;-77
2021/05/04 11:35:36;;;;;;;4.78;1.98;;;14.50;99.90;;;;;;5101928;28;20194;-77
2021/05/04 11:38:03;;;;;;;6.38;2.00;;;14.50;99.90;;;;;;5102841;28;20200;-77
2021/05/04 11:40:30;;;;;;;12.40;2.38;;;14.40;99.90;;;;;;5102467;28;20209;-77
2021/05/04 11:43:20;;;;;;;16.27;2.88;;;14.20;99.90;;;;;;5101350;28;20310;-79
2021/05/04 11:45:48;;;;;;;10.45;3.08;;;13.90;99.90;;;;;;5103015;28;20211;-78
2021/05/04 11:48:15;;;;;;;5.45;1.90;;;13.80;99.90;;;;;;5102379;28;20546;-77
2021/05/04 11:50:43;;;;;;;6.80;2.28;;;13.80;99.90;;;;;;5101992;28;20206;-78
2021/05/04 11:53:11;;;;;;;11.25;3.40;;;13.70;99.90;;;;;;5100990;28;20234;-77
2021/05/04 11:55:39;;;;;;;12.20;2.67;;;13.80;99.90;;;;;;5101665;28;20242;-76
2021/05/04 11:58:07;;;;;;;11.18;2.55;;;13.90;99.90;;;;;;5101243;28;20674;-76
2021/05/04 12:00:36;;;;;;;16.85;2.78;;;13.90;99.90;;;;;;5101467;28;20232;-77
2021/05/04 12:03:07;;;;;;;8.48;2.83;;;13.90;99.90;;;;;;5099445;28;20238;-77
2021/05/04 12:05:33;;;;;;;5.32;2.00;;;13.90;99.90;;;;;;5101819;28;20712;-78
2021/05/04 12:08:01;;;;;;;8.48;2.47;;;13.90;99.90;;;;;;5100572;28;20204;-77
2021/05/04 12:10:36;;;;;;;10.98;4.10;;;13.80;99.90;;;;;;5101910;28;20204;-76
2021/05/04 12:13:06;;;;;;;7.72;2.90;;;13.80;99.90;;;;;;5100881;28;20200;-76
2021/05/04 12:15:35;;;;;;;10.30;2.03;;;13.90;99.90;;;;;;5101260;28;20195;-77
2021/05/04 12:18:12;;;;;;;7.63;2.00;;;14.00;99.90;;;;;;5100088;28;20211;-77
2021/05/04 12:20:41;;;;;;;5.95;2.00;;;14.00;99.90;;;;;;5099769;28;20235;-76
2021/05/04 12:23:09;;;;;;;7.05;2.25;;;14.20;99.90;;;;;;5101864;28;20224;-77
2021/05/04 12:25:52;;;;;;;11.10;1.88;;;14.30;99.90;;;;;;5100123;28;20202;-77
2021/05/04 12:28:21;;;;;;;10.65;2.42;;;14.40;99.90;;;;;;5100861;28;20218;-76
2021/05/04 12:30:50;;;;;;;7.70;1.55;;;14.40;99.90;;;;;;5101605;28;20204;-76
2021/05/04 12:33:19;;;;;;;7.05;2.72;;;14.30;99.90;;;;;;5101673;28;20314;-76
2021/05/04 12:35:56;;;;;;;7.85;1.95;;;14.20;99.90;;;;;;5100784;28;20200;-77
2021/05/04 12:38:24;;;;;;;10.25;2.53;;;14.00;99.90;;;;;;5100075;28;20195;-76
2021/05/04 12:40:56;;;;;;;5.82;2.03;;;14.00;99.90;;;;;;5098871;28;20200;-76
2021/05/04 12:43:27;;;;;;;7.20;2.13;;;14.10;99.90;;;;;;5100361;28;20232;-76
2021/05/04 12:46:19;;;;;;;4.85;1.70;;;14.00;99.90;;;;;;5100492;28;20207;-76
2021/05/04 12:48:51;;;;;;;10.23;2.88;;;14.00;99.90;;;;;;5100448;28;20206;-76
2021/05/04 12:51:24;;;;;;;5.53;1.85;;;13.90;99.90;;;;;;5101775;28;20214;-77
2021/05/04 12:53:51;;;;;;;16.38;2.20;;;14.00;99.90;;;;;;5099387;28;20203;-77
2021/05/04 12:56:19;;;;;;;2.83;2.13;;;14.10;99.90;;;;;;5101836;28;20670;-76
2021/05/04 12:59:00;;;;;;;5.00;2.38;;;14.30;99.90;;;;;;5101402;28;20203;-77
2021/05/04 13:01:36;;;;;;;9.18;2.10;;;14.20;99.90;;;;;;5099283;28;20220;-77
2021/05/04 13:04:07;;;;;;;5.50;1.90;;;14.30;99.90;;;;;;5099008;28;20346;-76
2021/05/04 13:06:42;;;;;;;10.10;1.92;;;14.30;99.90;;;;;;5099215;28;20212;-76